Time,TemperatureF,DewpointF,PressureIn,WindDirection,WindDirectionDegrees,WindSpeedMPH,WindSpeedGustMPH,Humidity,HourlyPrecipIn,Conditions,Clouds,dailyrainin,SoftwareType,DateUTC
2013-05-03 00:00:00,32.5,31.2,30.29,North,355,0.0,0.0,95,0.00,,,0.00,Wunderground v.1.15,2013-05-03 05:00:00,
2013-05-03 00:10:00,32.5,31.2,30.29,NNW,336,0.0,0.0,95,0.00,,,0.00,Wunderground v.1.15,2013-05-03 05:10:00,
2013-05-03 00:20:00,32.5,31.2,30.28,NNW,347,0.0,0.0,95,0.00,,,0.00,Wunderground v.1.15,2013-05-03 05:20:00,
2013-05-03 00:30:00,32.5,31.2,30.27,WNW,293,0.0,0.0,95,0.00,,,0.00,Wunderground v.1.15,2013-05-03 05:30:00,
2013-05-03 00:40:00,32.5,31.2,30.27,NNW,336,0.0,0.0,95,0.00,,,0.00,Wunderground v.1.15,2013-05-03 05:40:00,
2013-05-03 00:50:00,32.5,31.2,30.26,North,355,0.0,0.0,95,0.00,,,0.00,Wunderground v.1.15,2013-05-03 05:50:00,
2013-05-03 01:00:00,32.5,31.5,30.24,North,355,0.0,0.0,96,0.00,,,0.00,Wunderground v.1.15,2013-05-03 06:00:00,
2013-05-03 01:10:00,32.5,31.5,30.24,NE,36,0.0,0.0,96,0.00,,,0.00,Wunderground v.1.15,2013-05-03 06:10:00,
2013-05-03 01:20:00,32.5,31.5,30.25,NNW,333,0.0,0.0,96,0.00,,,0.00,Wunderground v.1.15,2013-05-03 06:20:00,
2013-05-03 01:30:00,32.5,31.5,30.24,NNE,26,0.0,0.0,96,0.00,,,0.00,Wunderground v.1.15,2013-05-03 06:30:00,
2013-05-03 01:40:00,32.5,31.5,30.24,NW,318,0.0,0.0,96,0.00,,,0.00,Wunderground v.1.15,2013-05-03 06:40:00,
2013-05-03 01:50:00,32.7,31.7,30.23,NNE,12,0.0,0.0,96,0.00,,,0.00,Wunderground v.1.15,2013-05-03 06:50:00,
2013-05-03 02:00:00,32.7,31.7,30.23,North,360,0.0,0.0,96,0.00,,,0.00,Wunderground v.1.15,2013-05-03 07:00:00,
2013-05-03 02:10:00,32.7,31.7,30.23,NNE,30,0.0,0.0,96,0.00,,,0.00,Wunderground v.1.15,2013-05-03 07:10:00,
2013-05-03 02:20:00,32.7,31.7,30.22,NNW,340,0.0,0.0,96,0.00,,,0.01,Wunderground v.1.15,2013-05-03 07:20:00,
2013-05-03 02:30:00,32.7,31.7,30.21,NNE,29,0.0,0.0,96,0.00,,,0.01,Wunderground v.1.15,2013-05-03 07:30:00,
2013-05-03 02:40:00,32.7,31.7,30.21,NNW,344,0.0,0.0,96,0.00,,,0.01,Wunderground v.1.15,2013-05-03 07:40:00,
2013-05-03 02:50:00,32.7,31.7,30.20,North,355,0.0,0.0,96,0.00,,,0.01,Wunderground v.1.15,2013-05-03 07:50:00,
2013-05-03 03:00:00,32.5,31.5,30.20,NNW,336,0.0,0.0,96,0.00,,,0.01,Wunderground v.1.15,2013-05-03 08:00:00,
2013-05-03 03:10:00,32.5,31.5,30.20,NNW,346,0.0,0.0,96,0.00,,,0.01,Wunderground v.1.15,2013-05-03 08:10:00,
2013-05-03 03:20:00,32.4,31.4,30.18,NNW,344,0.0,0.0,96,0.00,,,0.01,Wunderground v.1.15,2013-05-03 08:20:00,
2013-05-03 03:30:00,32.4,31.4,30.18,NNW,348,0.0,0.0,96,0.00,,,0.01,Wunderground v.1.15,2013-05-03 08:30:00,
2013-05-03 03:40:00,32.4,31.4,30.18,North,5,0.0,0.0,96,0.00,,,0.01,Wunderground v.1.15,2013-05-03 08:40:00,
2013-05-03 03:50:00,32.4,31.4,30.17,North,5,0.0,0.0,96,0.00,,,0.01,Wunderground v.1.15,2013-05-03 08:50:00,
2013-05-03 04:00:00,32.4,31.4,30.17,North,5,0.0,0.0,96,0.00,,,0.01,Wunderground v.1.15,2013-05-03 09:00:00,
2013-05-03 04:10:00,32.2,31.2,30.17,North,355,0.0,0.0,96,0.00,,,0.01,Wunderground v.1.15,2013-05-03 09:10:00,
2013-05-03 04:20:00,32.2,31.2,30.17,North,355,0.0,0.0,96,0.00,,,0.01,Wunderground v.1.15,2013-05-03 09:20:00,
2013-05-03 04:30:00,32.2,31.2,30.18,North,355,0.0,0.0,96,0.00,,,0.01,Wunderground v.1.15,2013-05-03 09:30:00,
2013-05-03 04:40:00,32.2,31.2,30.18,North,355,0.0,0.0,96,0.00,,,0.01,Wunderground v.1.15,2013-05-03 09:40:00,
2013-05-03 04:50:00,32.2,31.4,30.16,North,360,0.0,0.0,97,0.00,,,0.01,Wunderground v.1.15,2013-05-03 09:50:00,
2013-05-03 05:00:00,32.2,31.4,30.16,North,360,0.0,0.0,97,0.00,,,0.01,Wunderground v.1.15,2013-05-03 10:00:00,
2013-05-03 05:10:00,32.2,31.7,30.16,North,360,0.0,0.0,98,0.00,,,0.01,Wunderground v.1.15,2013-05-03 10:10:00,
2013-05-03 05:20:00,32.2,31.7,30.17,North,360,0.0,0.0,98,0.00,,,0.01,Wunderground v.1.15,2013-05-03 10:20:00,
2013-05-03 05:30:00,32.2,31.7,30.16,North,360,0.0,0.0,98,0.00,,,0.01,Wunderground v.1.15,2013-05-03 10:30:00,
2013-05-03 05:40:00,32.2,31.7,30.16,North,360,0.0,0.0,98,0.00,,,0.01,Wunderground v.1.15,2013-05-03 10:40:00,
2013-05-03 05:50:00,32.2,31.7,30.16,North,360,0.0,0.0,98,0.00,,,0.01,Wunderground v.1.15,2013-05-03 10:50:00,
2013-05-03 06:00:00,32.2,31.7,30.14,North,360,0.0,0.0,98,0.00,,,0.01,Wunderground v.1.15,2013-05-03 11:00:00,
2013-05-03 06:10:00,32.2,31.7,30.14,North,360,0.0,0.0,98,0.00,,,0.01,Wunderground v.1.15,2013-05-03 11:10:00,
2013-05-03 06:20:00,32.2,31.7,30.13,North,360,0.0,0.0,98,0.00,,,0.01,Wunderground v.1.15,2013-05-03 11:20:00,
2013-05-03 06:30:00,32.2,31.7,30.15,North,360,0.0,0.0,98,0.00,,,0.01,Wunderground v.1.15,2013-05-03 11:30:00,
2013-05-03 06:40:00,32.2,31.7,30.15,North,360,0.0,0.0,98,0.00,,,0.01,Wunderground v.1.15,2013-05-03 11:40:00,
2013-05-03 06:50:00,32.2,31.7,30.15,North,360,0.0,0.0,98,0.00,,,0.01,Wunderground v.1.15,2013-05-03 11:50:00,
2013-05-03 07:00:00,32.2,31.7,30.13,North,360,0.0,0.0,98,0.00,,,0.01,Wunderground v.1.15,2013-05-03 12:00:00,
2013-05-03 07:10:00,32.2,31.7,30.13,North,360,0.0,0.0,98,0.00,,,0.02,Wunderground v.1.15,2013-05-03 12:10:00,
2013-05-03 07:20:00,32.4,31.9,30.14,North,360,0.0,0.0,98,0.00,,,0.02,Wunderground v.1.15,2013-05-03 12:20:00,
2013-05-03 07:30:00,32.4,31.9,30.14,North,360,0.0,0.0,98,0.00,,,0.02,Wunderground v.1.15,2013-05-03 12:30:00,
2013-05-03 07:40:00,32.5,32.0,30.14,North,360,0.0,0.0,98,0.00,,,0.02,Wunderground v.1.15,2013-05-03 12:40:00,
2013-05-03 07:50:00,32.5,32.0,30.15,North,360,0.0,0.0,98,0.00,,,0.02,Wunderground v.1.15,2013-05-03 12:50:00,
2013-05-03 08:00:00,32.5,32.0,30.14,North,360,0.0,0.0,98,0.00,,,0.02,Wunderground v.1.15,2013-05-03 13:00:00,
2013-05-03 08:10:00,32.5,32.0,30.14,North,360,0.0,0.0,98,0.00,,,0.02,Wunderground v.1.15,2013-05-03 13:10:00,
2013-05-03 08:20:00,32.5,32.0,30.13,North,360,0.0,0.0,98,0.00,,,0.02,Wunderground v.1.15,2013-05-03 13:20:00,
2013-05-03 08:30:00,32.5,32.0,30.12,North,360,0.0,0.0,98,0.00,,,0.02,Wunderground v.1.15,2013-05-03 13:30:00,
2013-05-03 08:40:00,32.5,32.0,30.12,NE,35,0.0,0.0,98,0.00,,,0.02,Wunderground v.1.15,2013-05-03 13:40:00,
2013-05-03 08:50:00,32.7,32.2,30.12,NNW,348,0.0,0.0,98,0.00,,,0.02,Wunderground v.1.15,2013-05-03 13:50:00,
2013-05-03 09:00:00,32.7,32.2,30.12,NNW,348,0.0,0.0,98,0.00,,,0.02,Wunderground v.1.15,2013-05-03 14:00:00,
2013-05-03 09:10:00,32.9,32.4,30.12,NNW,348,0.0,0.0,98,0.00,,,0.03,Wunderground v.1.15,2013-05-03 14:10:00,
2013-05-03 09:20:00,33.1,32.6,30.12,North,355,0.0,0.0,98,0.00,,,0.03,Wunderground v.1.15,2013-05-03 14:20:00,
2013-05-03 09:30:00,32.9,32.4,30.12,North,9,0.0,0.0,98,0.00,,,0.03,Wunderground v.1.15,2013-05-03 14:30:00,
2013-05-03 09:40:00,33.1,32.6,30.12,North,9,2.0,4.0,98,0.00,,,0.04,Wunderground v.1.15,2013-05-03 14:40:00,
2013-05-03 09:50:00,33.1,32.6,30.11,NNE,19,3.0,3.0,98,0.00,,,0.04,Wunderground v.1.15,2013-05-03 14:50:00,
2013-05-03 10:00:00,33.1,32.6,30.09,NNE,15,3.0,3.0,98,0.00,,,0.04,Wunderground v.1.15,2013-05-03 15:00:00,
2013-05-03 10:10:00,33.2,32.7,30.09,NNE,15,3.0,3.0,98,0.00,,,0.05,Wunderground v.1.15,2013-05-03 15:10:00,
2013-05-03 10:20:00,33.2,32.7,30.08,NE,42,4.0,4.0,98,0.00,,,0.05,Wunderground v.1.15,2013-05-03 15:20:00,
2013-05-03 10:30:00,33.2,32.7,30.08,North,5,3.0,4.0,98,0.00,,,0.06,Wunderground v.1.15,2013-05-03 15:30:00,
2013-05-03 10:40:00,33.4,32.9,30.08,North,5,3.0,3.0,98,0.04,,,0.07,Wunderground v.1.15,2013-05-03 15:40:00,
2013-05-03 10:50:00,33.2,32.7,30.08,North,11,3.0,3.0,98,0.04,,,0.07,Wunderground v.1.15,2013-05-03 15:50:00,
2013-05-03 11:00:00,33.4,32.9,30.08,North,360,2.0,4.0,98,0.04,,,0.08,Wunderground v.1.15,2013-05-03 16:00:00,
2013-05-03 11:10:00,33.2,32.7,30.08,North,360,4.0,4.0,98,0.05,,,0.09,Wunderground v.1.15,2013-05-03 16:10:00,
2013-05-03 11:20:00,33.2,32.7,30.08,NNW,328,3.0,3.0,98,0.04,,,0.09,Wunderground v.1.15,2013-05-03 16:20:00,
2013-05-03 11:30:00,33.4,32.9,30.07,North,360,1.0,1.0,98,0.04,,,0.10,Wunderground v.1.15,2013-05-03 16:30:00,
2013-05-03 11:40:00,33.2,32.7,30.07,NNE,25,2.0,2.0,98,0.04,,,0.11,Wunderground v.1.15,2013-05-03 16:40:00,
2013-05-03 11:50:00,33.2,32.7,30.08,North,355,2.0,2.0,98,0.04,,,0.11,Wunderground v.1.15,2013-05-03 16:50:00,
2013-05-03 12:00:00,33.2,32.7,30.08,North,355,2.0,2.0,98,0.04,,,0.12,Wunderground v.1.15,2013-05-03 17:00:00,
2013-05-03 12:10:00,33.1,32.3,30.08,North,355,3.0,7.0,97,0.00,,,0.13,Wunderground v.1.15,2013-05-03 17:10:00,
2013-05-03 12:20:00,33.1,32.3,30.07,NE,34,3.0,7.0,97,0.00,,,0.13,Wunderground v.1.15,2013-05-03 17:20:00,
2013-05-03 12:30:00,33.1,32.3,30.07,NNE,16,2.0,2.0,97,0.00,,,0.14,Wunderground v.1.15,2013-05-03 17:30:00,
2013-05-03 12:40:00,32.9,32.1,30.07,NE,36,3.0,5.0,97,0.00,,,0.14,Wunderground v.1.15,2013-05-03 17:40:00,
2013-05-03 12:50:00,33.1,32.3,30.07,North,5,2.0,4.0,97,0.00,,,0.15,Wunderground v.1.15,2013-05-03 17:50:00,
2013-05-03 13:00:00,33.1,32.3,30.05,North,355,2.0,3.0,97,0.00,,,0.15,Wunderground v.1.15,2013-05-03 18:00:00,
2013-05-03 13:10:00,33.1,32.3,30.05,NNE,22,3.0,5.0,97,0.00,,,0.16,Wunderground v.1.15,2013-05-03 18:10:00,
2013-05-03 13:20:00,33.1,32.3,30.05,NNW,336,2.0,2.0,97,0.00,,,0.16,Wunderground v.1.15,2013-05-03 18:20:00,
2013-05-03 13:30:00,33.1,32.3,30.05,NW,324,2.0,5.0,97,0.00,,,0.17,Wunderground v.1.15,2013-05-03 18:30:00,
2013-05-03 13:40:00,33.2,32.4,30.05,North,10,2.0,4.0,97,0.00,,,0.17,Wunderground v.1.15,2013-05-03 18:40:00,
2013-05-03 13:50:00,33.1,32.3,30.04,NE,34,3.0,3.0,97,0.00,,,0.18,Wunderground v.1.15,2013-05-03 18:50:00,
2013-05-03 14:00:00,33.1,32.3,30.04,North,360,2.0,3.0,97,0.00,,,0.18,Wunderground v.1.15,2013-05-03 19:00:00,
2013-05-03 14:10:00,33.1,32.3,30.04,NNE,28,2.0,3.0,97,0.04,,,0.19,Wunderground v.1.15,2013-05-03 19:10:00,
2013-05-03 14:20:00,33.1,32.3,30.04,NE,34,3.0,4.0,97,0.04,,,0.19,Wunderground v.1.15,2013-05-03 19:20:00,
2013-05-03 14:30:00,33.1,32.3,30.04,North,349,3.0,3.0,97,0.00,,,0.20,Wunderground v.1.15,2013-05-03 19:30:00,
2013-05-03 14:40:00,33.4,32.6,30.04,NE,34,3.0,4.0,97,0.00,,,0.20,Wunderground v.1.15,2013-05-03 19:40:00,
2013-05-03 14:50:00,33.1,32.1,30.03,North,355,4.0,4.0,96,0.04,,,0.21,Wunderground v.1.15,2013-05-03 19:50:00,
2013-05-03 15:00:00,33.2,32.4,30.02,North,349,2.0,2.0,97,0.00,,,0.22,Wunderground v.1.15,2013-05-03 20:00:00,
2013-05-03 15:10:00,33.1,32.1,30.02,NNE,16,2.0,4.0,96,0.00,,,0.22,Wunderground v.1.15,2013-05-03 20:10:00,
2013-05-03 15:20:00,33.1,32.1,30.02,North,360,3.0,3.0,96,0.04,,,0.23,Wunderground v.1.15,2013-05-03 20:20:00,
2013-05-03 15:30:00,33.2,32.2,30.04,WNW,291,1.0,7.0,96,0.04,,,0.23,Wunderground v.1.15,2013-05-03 20:30:00,
2013-05-03 15:40:00,33.1,32.1,30.04,NNW,341,2.0,2.0,96,0.00,,,0.24,Wunderground v.1.15,2013-05-03 20:40:00,
2013-05-03 15:50:00,32.8,31.8,30.00,North,11,4.0,4.0,96,0.00,,,0.24,Wunderground v.1.15,2013-05-03 20:50:00,
2013-05-03 16:00:00,32.9,31.9,30.00,North,5,3.0,4.0,96,0.00,,,0.25,Wunderground v.1.15,2013-05-03 21:00:00,
2013-05-03 16:10:00,32.8,31.8,30.00,NNE,24,3.0,3.0,96,0.00,,,0.25,Wunderground v.1.15,2013-05-03 21:10:00,
2013-05-03 16:20:00,32.8,31.8,30.00,NW,315,3.0,3.0,96,0.00,,,0.25,Wunderground v.1.15,2013-05-03 21:20:00,
2013-05-03 16:30:00,32.8,31.8,29.99,NNE,14,3.0,3.0,96,0.00,,,0.26,Wunderground v.1.15,2013-05-03 21:30:00,
2013-05-03 16:40:00,32.8,31.8,29.99,WNW,296,3.0,5.0,96,0.00,,,0.26,Wunderground v.1.15,2013-05-03 21:40:00,
2013-05-03 16:50:00,32.9,31.9,29.99,North,360,3.0,4.0,96,0.00,,,0.27,Wunderground v.1.15,2013-05-03 21:50:00,
2013-05-03 17:00:00,32.9,31.9,29.97,NNW,331,3.0,4.0,96,0.00,,,0.27,Wunderground v.1.15,2013-05-03 22:00:00,
2013-05-03 17:10:00,33.1,32.1,29.97,NNW,327,3.0,3.0,96,0.00,,,0.27,Wunderground v.1.15,2013-05-03 22:10:00,
2013-05-03 17:20:00,33.1,32.1,29.97,North,5,2.0,3.0,96,0.00,,,0.28,Wunderground v.1.15,2013-05-03 22:20:00,
2013-05-03 17:30:00,33.2,32.2,29.99,NE,37,2.0,7.0,96,0.00,,,0.28,Wunderground v.1.15,2013-05-03 22:30:00,
2013-05-03 17:40:00,33.1,32.1,29.99,North,355,3.0,4.0,96,0.00,,,0.28,Wunderground v.1.15,2013-05-03 22:40:00,
2013-05-03 17:50:00,33.2,32.2,29.99,NNE,17,3.0,3.0,96,0.00,,,0.29,Wunderground v.1.15,2013-05-03 22:50:00,
2013-05-03 18:00:00,33.2,32.2,29.99,NNE,22,3.0,3.0,96,0.00,,,0.29,Wunderground v.1.15,2013-05-03 23:00:00,
2013-05-03 18:10:00,33.2,32.2,29.99,NNE,18,2.0,2.0,96,0.00,,,0.29,Wunderground v.1.15,2013-05-03 23:10:00,
2013-05-03 18:20:00,33.4,32.1,30.00,NNE,26,2.0,4.0,95,0.00,,,0.30,Wunderground v.1.15,2013-05-03 23:20:00,
2013-05-03 18:30:00,33.4,32.1,29.99,NNE,12,1.0,1.0,95,0.00,,,0.30,Wunderground v.1.15,2013-05-03 23:30:00,
2013-05-03 18:40:00,33.4,32.1,29.99,North,11,2.0,5.0,95,0.00,,,0.31,Wunderground v.1.15,2013-05-03 23:40:00,
2013-05-03 18:50:00,33.2,31.9,29.99,NNE,13,2.0,2.0,95,0.00,,,0.31,Wunderground v.1.15,2013-05-03 23:50:00,
2013-05-03 19:00:00,33.2,31.9,29.97,NNE,28,3.0,3.0,95,0.00,,,0.31,Wunderground v.1.15,2013-05-04 00:00:00,
2013-05-03 19:10:00,33.2,31.9,29.97,NNE,22,2.0,4.0,95,0.00,,,0.31,Wunderground v.1.15,2013-05-04 00:10:00,
2013-05-03 19:20:00,33.2,31.7,29.98,North,355,2.0,2.0,94,0.00,,,0.32,Wunderground v.1.15,2013-05-04 00:20:00,
2013-05-03 19:30:00,33.4,31.9,29.97,NNE,26,1.0,2.0,94,0.00,,,0.32,Wunderground v.1.15,2013-05-04 00:30:00,
2013-05-03 19:40:00,33.2,31.7,29.97,NNW,342,2.0,3.0,94,0.00,,,0.32,Wunderground v.1.15,2013-05-04 00:40:00,
2013-05-03 19:50:00,33.2,31.7,29.98,NNE,12,3.0,3.0,94,0.00,,,0.32,Wunderground v.1.15,2013-05-04 00:50:00,
2013-05-03 20:00:00,33.2,31.7,29.97,North,355,2.0,5.0,94,0.00,,,0.33,Wunderground v.1.15,2013-05-04 01:00:00,
2013-05-03 20:10:00,33.2,31.7,29.97,North,5,3.0,4.0,94,0.00,,,0.33,Wunderground v.1.15,2013-05-04 01:10:00,
2013-05-03 20:20:00,33.2,31.7,29.96,North,5,3.0,3.0,94,0.00,,,0.33,Wunderground v.1.15,2013-05-04 01:20:00,
2013-05-03 20:30:00,33.2,31.7,29.96,NNE,15,2.0,3.0,94,0.00,,,0.33,Wunderground v.1.15,2013-05-04 01:30:00,
2013-05-03 20:40:00,33.2,31.7,29.96,NNE,15,2.0,6.0,94,0.00,,,0.33,Wunderground v.1.15,2013-05-04 01:40:00,
2013-05-03 20:50:00,33.2,31.7,29.97,North,5,3.0,3.0,94,0.00,,,0.33,Wunderground v.1.15,2013-05-04 01:50:00,
2013-05-03 21:00:00,33.2,31.7,29.97,NNE,19,2.0,2.0,94,0.00,,,0.34,Wunderground v.1.15,2013-05-04 02:00:00,
2013-05-03 21:10:00,33.1,31.6,29.97,NNE,19,2.0,2.0,94,0.00,,,0.34,Wunderground v.1.15,2013-05-04 02:10:00,
2013-05-03 21:20:00,33.1,31.8,29.96,NNE,24,2.0,4.0,95,0.00,,,0.34,Wunderground v.1.15,2013-05-04 02:20:00,
2013-05-03 21:30:00,33.1,31.8,29.94,North,360,2.0,3.0,95,0.00,,,0.34,Wunderground v.1.15,2013-05-04 02:30:00,
2013-05-03 21:40:00,33.1,31.8,29.94,NNE,16,3.0,5.0,95,0.00,,,0.35,Wunderground v.1.15,2013-05-04 02:40:00,
2013-05-03 21:50:00,33.1,31.8,29.94,NNE,26,3.0,3.0,95,0.00,,,0.35,Wunderground v.1.15,2013-05-04 02:50:00,
2013-05-03 22:00:00,33.1,31.8,29.94,NNW,340,3.0,3.0,95,0.00,,,0.36,Wunderground v.1.15,2013-05-04 03:00:00,
2013-05-03 22:10:00,33.2,31.9,29.94,North,11,3.0,5.0,95,0.00,,,0.36,Wunderground v.1.15,2013-05-04 03:10:00,
2013-05-03 22:20:00,33.2,31.9,29.94,NNE,16,2.0,2.0,95,0.00,,,0.37,Wunderground v.1.15,2013-05-04 03:20:00,
2013-05-03 22:30:00,33.2,31.9,29.93,NNE,30,3.0,3.0,95,0.00,,,0.37,Wunderground v.1.15,2013-05-04 03:30:00,
2013-05-03 22:40:00,33.2,31.9,29.93,North,5,3.0,3.0,95,0.00,,,0.38,Wunderground v.1.15,2013-05-04 03:40:00,
2013-05-03 22:50:00,33.2,31.9,29.92,North,355,2.0,3.0,95,0.00,,,0.38,Wunderground v.1.15,2013-05-04 03:50:00,
2013-05-03 23:00:00,33.2,31.9,29.92,NE,35,2.0,3.0,95,0.04,,,0.39,Wunderground v.1.15,2013-05-04 04:00:00,
2013-05-03 23:10:00,33.4,32.4,29.92,NNE,26,2.0,2.0,96,0.04,,,0.40,Wunderground v.1.15,2013-05-04 04:10:00,
2013-05-03 23:20:00,33.4,32.4,29.92,NNE,20,2.0,2.0,96,0.04,,,0.40,Wunderground v.1.15,2013-05-04 04:20:00,
2013-05-03 23:30:00,33.4,32.4,29.91,NE,36,2.0,7.0,96,0.05,,,0.41,Wunderground v.1.15,2013-05-04 04:30:00,
2013-05-03 23:40:00,33.4,32.4,29.91,North,9,4.0,4.0,96,0.06,,,0.42,Wunderground v.1.15,2013-05-04 04:40:00,
2013-05-03 23:50:00,33.4,32.4,29.90,NE,45,2.0,2.0,96,0.04,,,0.43,Wunderground v.1.15,2013-05-04 04:50:00,